sensor_id;sensor_type;location;lat;lon;timestamp;P1;durP1;ratioP1;P2;durP2;ratioP2
19946;SDS011;10135;50.702;7.276;2023-11-19T06:32:09;7.07;;;1.90;;
19946;SDS011;10135;50.702;7.276;2023-11-19T06:34:09;2.60;;;1.63;;
19946;SDS011;10135;50.702;7.276;2023-11-19T06:36:10;3.67;;;1.70;;
19946;SDS011;10135;50.702;7.276;2023-11-19T06:38:16;6.57;;;1.80;;
19946;SDS011;10135;50.702;7.276;2023-11-19T06:40:16;5.47;;;1.80;;
19946;SDS011;10135;50.702;7.276;2023-11-19T06:42:17;6.37;;;2.00;;
19946;SDS011;10135;50.702;7.276;2023-11-19T06:44:18;6.23;;;2.00;;
19946;SDS011;10135;50.702;7.276;2023-11-19T06:46:18;4.03;;;1.87;;
19946;SDS011;10135;50.702;7.276;2023-11-19T06:48:19;8.67;;;2.03;;
19946;SDS011;10135;50.702;7.276;2023-11-19T06:50:20;5.80;;;1.60;;
19946;SDS011;10135;50.702;7.276;2023-11-19T06:52:20;5.43;;;1.87;;
19946;SDS011;10135;50.702;7.276;2023-11-19T06:54:21;8.00;;;1.80;;
19946;SDS011;10135;50.702;7.276;2023-11-19T06:56:23;9.03;;;1.90;;
19946;SDS011;10135;50.702;7.276;2023-11-19T06:58:24;4.37;;;2.13;;
19946;SDS011;10135;50.702;7.276;2023-11-19T07:00:24;6.03;;;1.80;;
19946;SDS011;10135;50.702;7.276;2023-11-19T07:02:25;4.07;;;1.60;;
19946;SDS011;10135;50.702;7.276;2023-11-19T07:04:26;5.13;;;1.70;;
19946;SDS011;10135;50.702;7.276;2023-11-19T07:06:26;4.43;;;1.90;;
19946;SDS011;10135;50.702;7.276;2023-11-19T07:08:27;9.27;;;2.00;;
19946;SDS011;10135;50.702;7.276;2023-11-19T07:10:28;11.47;;;2.67;;
19946;SDS011;10135;50.702;7.276;2023-11-19T07:12:30;9.00;;;1.63;;
19946;SDS011;10135;50.702;7.276;2023-11-19T07:14:31;7.17;;;2.10;;
19946;SDS011;10135;50.702;7.276;2023-11-19T07:16:32;6.40;;;2.10;;
19946;SDS011;10135;50.702;7.276;2023-11-19T07:18:34;7.70;;;1.80;;
19946;SDS011;10135;50.702;7.276;2023-11-19T07:20:35;8.90;;;2.10;;
19946;SDS011;10135;50.702;7.276;2023-11-19T07:22:37;5.90;;;1.87;;
19946;SDS011;10135;50.702;7.276;2023-11-19T07:24:39;9.07;;;2.27;;
19946;SDS011;10135;50.702;7.276;2023-11-19T07:26:42;2.30;;;1.47;;
19946;SDS011;10135;50.702;7.276;2023-11-19T07:28:44;5.60;;;2.20;;
19946;SDS011;10135;50.702;7.276;2023-11-19T07:30:45;10.27;;;2.10;;
19946;SDS011;10135;50.702;7.276;2023-11-19T07:32:46;7.40;;;1.90;;
19946;SDS011;10135;50.702;7.276;2023-11-19T07:34:46;11.03;;;2.20;;
19946;SDS011;10135;50.702;7.276;2023-11-19T07:36:47;7.13;;;2.07;;
19946;SDS011;10135;50.702;7.276;2023-11-19T07:38:48;5.53;;;1.93;;
19946;SDS011;10135;50.702;7.276;2023-11-19T07:40:48;6.30;;;2.30;;
19946;SDS011;10135;50.702;7.276;2023-11-19T07:42:49;8.17;;;2.00;;
19946;SDS011;10135;50.702;7.276;2023-11-19T07:44:50;11.27;;;2.43;;
19946;SDS011;10135;50.702;7.276;2023-11-19T07:46:50;8.20;;;1.90;;
19946;SDS011;10135;50.702;7.276;2023-11-19T07:48:51;6.83;;;2.30;;
19946;SDS011;10135;50.702;7.276;2023-11-19T07:50:52;9.93;;;2.10;;
19946;SDS011;10135;50.702;7.276;2023-11-19T07:52:54;8.13;;;2.47;;
19946;SDS011;10135;50.702;7.276;2023-11-19T07:54:54;7.10;;;2.20;;
19946;SDS011;10135;50.702;7.276;2023-11-19T07:56:55;4.97;;;1.80;;
19946;SDS011;10135;50.702;7.276;2023-11-19T07:58:56;7.37;;;2.10;;
19946;SDS011;10135;50.702;7.276;2023-11-19T08:00:56;6.97;;;2.23;;
19946;SDS011;10135;50.702;7.276;2023-11-19T08:02:57;8.30;;;2.20;;
19946;SDS011;10135;50.702;7.276;2023-11-19T08:04:58;8.13;;;2.37;;
19946;SDS011;10135;50.702;7.276;2023-11-19T08:06:58;3.70;;;2.00;;
19946;SDS011;10135;50.702;7.276;2023-11-19T08:08:59;8.57;;;2.53;;
19946;SDS011;10135;50.702;7.276;2023-11-19T08:11:00;7.30;;;2.40;;
19946;SDS011;10135;50.702;7.276;2023-11-19T08:13:00;6.60;;;1.97;;
19946;SDS011;10135;50.702;7.276;2023-11-19T08:15:02;8.10;;;2.03;;
19946;SDS011;10135;50.702;7.276;2023-11-19T08:17:04;6.23;;;1.90;;
19946;SDS011;10135;50.702;7.276;2023-11-19T08:19:05;8.43;;;2.07;;
19946;SDS011;10135;50.702;7.276;2023-11-19T08:21:06;11.13;;;2.43;;
19946;SDS011;10135;50.702;7.276;2023-11-19T08:45:17;10.53;;;2.50;;
19946;SDS011;10135;50.702;7.276;2023-11-19T08:47:26;11.23;;;2.40;;
19946;SDS011;10135;50.702;7.276;2023-11-19T08:49:36;10.63;;;2.40;;
19946;SDS011;10135;50.702;7.276;2023-11-19T08:51:38;15.60;;;2.63;;
19946;SDS011;10135;50.702;7.276;2023-11-19T08:53:42;6.73;;;2.23;;
19946;SDS011;10135;50.702;7.276;2023-11-19T08:55:43;8.90;;;2.70;;
19946;SDS011;10135;50.702;7.276;2023-11-19T08:57:44;9.00;;;2.10;;
19946;SDS011;10135;50.702;7.276;2023-11-19T08:59:51;8.27;;;2.43;;
19946;SDS011;10135;50.702;7.276;2023-11-19T09:02:05;10.17;;;2.60;;
19946;SDS011;10135;50.702;7.276;2023-11-19T09:04:14;9.27;;;2.17;;
19946;SDS011;10135;50.702;7.276;2023-11-19T09:06:18;10.73;;;2.70;;
19946;SDS011;10135;50.702;7.276;2023-11-19T09:08:27;17.07;;;3.17;;
19946;SDS011;10135;50.702;7.276;2023-11-19T09:10:33;8.77;;;2.40;;
19946;SDS011;10135;50.702;7.276;2023-11-19T09:12:34;10.67;;;2.57;;
19946;SDS011;10135;50.702;7.276;2023-11-19T09:14:35;11.23;;;2.80;;
19946;SDS011;10135;50.702;7.276;2023-11-19T09:16:36;9.87;;;2.40;;
19946;SDS011;10135;50.702;7.276;2023-11-19T09:18:36;8.23;;;2.43;;
19946;SDS011;10135;50.702;7.276;2023-11-19T09:20:37;10.30;;;2.57;;
19946;SDS011;10135;50.702;7.276;2023-11-19T09:22:38;9.60;;;2.30;;
19946;SDS011;10135;50.702;7.276;2023-11-19T09:24:39;7.43;;;2.20;;
19946;SDS011;10135;50.702;7.276;2023-11-19T09:26:39;9.50;;;2.63;;
19946;SDS011;10135;50.702;7.276;2023-11-19T09:28:41;11.73;;;2.53;;
19946;SDS011;10135;50.702;7.276;2023-11-19T09:30:42;11.20;;;2.63;;
19946;SDS011;10135;50.702;7.276;2023-11-19T09:32:43;12.07;;;2.53;;
19946;SDS011;10135;50.702;7.276;2023-11-19T09:34:44;18.17;;;2.90;;
19946;SDS011;10135;50.702;7.276;2023-11-19T09:36:45;13.20;;;3.10;;
19946;SDS011;10135;50.702;7.276;2023-11-19T09:38:45;8.57;;;2.70;;
19946;SDS011;10135;50.702;7.276;2023-11-19T09:51:32;12.70;;;3.50;;
19946;SDS011;10135;50.702;7.276;2023-11-19T09:53:33;12.07;;;2.33;;
19946;SDS011;10135;50.702;7.276;2023-11-19T09:55:36;8.40;;;2.50;;
19946;SDS011;10135;50.702;7.276;2023-11-19T09:57:37;14.77;;;2.53;;
19946;SDS011;10135;50.702;7.276;2023-11-19T09:59:39;9.50;;;2.70;;
19946;SDS011;10135;50.702;7.276;2023-11-19T10:01:40;7.03;;;2.40;;
19946;SDS011;10135;50.702;7.276;2023-11-19T10:03:43;12.43;;;2.53;;
19946;SDS011;10135;50.702;7.276;2023-11-19T10:05:47;10.07;;;2.70;;
19946;SDS011;10135;50.702;7.276;2023-11-19T10:07:48;10.00;;;2.57;;
19946;SDS011;10135;50.702;7.276;2023-11-19T10:09:49;14.63;;;2.87;;
19946;SDS011;10135;50.702;7.276;2023-11-19T10:14:46;9.13;;;2.67;;
19946;SDS011;10135;50.702;7.276;2023-11-19T10:40:54;7.10;;;2.83;;
19946;SDS011;10135;50.702;7.276;2023-11-19T10:43:05;9.80;;;2.70;;
19946;SDS011;10135;50.702;7.276;2023-11-19T10:45:22;12.47;;;2.50;;
19946;SDS011;10135;50.702;7.276;2023-11-19T10:47:42;11.47;;;2.93;;
19946;SDS011;10135;50.702;7.276;2023-11-19T10:49:43;8.83;;;2.83;;
19946;SDS011;10135;50.702;7.276;2023-11-19T10:51:48;14.37;;;2.77;;
19946;SDS011;10135;50.702;7.276;2023-11-19T10:53:51;11.37;;;2.80;;
19946;SDS011;10135;50.702;7.276;2023-11-19T10:55:58;9.43;;;3.53;;
19946;SDS011;10135;50.702;7.276;2023-11-19T10:58:02;12.27;;;3.03;;
19946;SDS011;10135;50.702;7.276;2023-11-19T11:00:08;13.83;;;3.67;;
19946;SDS011;10135;50.702;7.276;2023-11-19T11:02:12;15.67;;;4.10;;
19946;SDS011;10135;50.702;7.276;2023-11-19T11:04:25;11.20;;;3.53;;
19946;SDS011;10135;50.702;7.276;2023-11-19T11:06:28;13.30;;;4.10;;
19946;SDS011;10135;50.702;7.276;2023-11-19T11:08:30;13.63;;;3.63;;
19946;SDS011;10135;50.702;7.276;2023-11-19T11:10:31;15.17;;;3.53;;
19946;SDS011;10135;50.702;7.276;2023-11-19T11:12:36;11.50;;;3.67;;
19946;SDS011;10135;50.702;7.276;2023-11-19T11:14:39;15.90;;;4.23;;
19946;SDS011;10135;50.702;7.276;2023-11-19T11:16:43;9.77;;;3.43;;
19946;SDS011;10135;50.702;7.276;2023-11-19T11:18:46;13.43;;;3.23;;
19946;SDS011;10135;50.702;7.276;2023-11-19T11:20:49;10.57;;;3.03;;
19946;SDS011;10135;50.702;7.276;2023-11-19T11:25:13;13.63;;;2.60;;
19946;SDS011;10135;50.702;7.276;2023-11-19T11:27:48;9.80;;;2.40;;
19946;SDS011;10135;50.702;7.276;2023-11-19T11:37:36;10.17;;;3.00;;
19946;SDS011;10135;50.702;7.276;2023-11-19T11:39:49;10.90;;;2.27;;
19946;SDS011;10135;50.702;7.276;2023-11-19T11:44:57;7.93;;;2.37;;
19946;SDS011;10135;50.702;7.276;2023-11-19T11:47:03;8.63;;;2.17;;
19946;SDS011;10135;50.702;7.276;2023-11-19T11:49:04;8.77;;;2.40;;
19946;SDS011;10135;50.702;7.276;2023-11-19T11:51:06;11.43;;;2.70;;
19946;SDS011;10135;50.702;7.276;2023-11-19T11:53:13;8.30;;;2.63;;
19946;SDS011;10135;50.702;7.276;2023-11-19T11:55:16;9.47;;;2.43;;
19946;SDS011;10135;50.702;7.276;2023-11-19T11:57:17;11.03;;;2.37;;
19946;SDS011;10135;50.702;7.276;2023-11-19T11:59:18;11.97;;;3.07;;
19946;SDS011;10135;50.702;7.276;2023-11-19T12:01:19;10.20;;;2.47;;
19946;SDS011;10135;50.702;7.276;2023-11-19T12:03:21;8.70;;;2.50;;
19946;SDS011;10135;50.702;7.276;2023-11-19T13:43:12;9.07;;;2.17;;
19946;SDS011;10135;50.702;7.276;2023-11-19T13:45:29;7.60;;;2.83;;
19946;SDS011;10135;50.702;7.276;2023-11-19T13:48:17;5.83;;;2.00;;
19946;SDS011;10135;50.702;7.276;2023-11-19T13:53:42;7.13;;;2.57;;
19946;SDS011;10135;50.702;7.276;2023-11-19T13:55:52;6.77;;;2.30;;
19946;SDS011;10135;50.702;7.276;2023-11-19T13:57:53;9.77;;;1.93;;
19946;SDS011;10135;50.702;7.276;2023-11-19T13:59:55;8.83;;;2.20;;
19946;SDS011;10135;50.702;7.276;2023-11-19T14:01:56;9.40;;;2.40;;
19946;SDS011;10135;50.702;7.276;2023-11-19T14:04:03;7.40;;;2.30;;
19946;SDS011;10135;50.702;7.276;2023-11-19T14:06:12;9.27;;;2.50;;
19946;SDS011;10135;50.702;7.276;2023-11-19T14:08:35;9.63;;;2.77;;
19946;SDS011;10135;50.702;7.276;2023-11-19T14:10:39;9.90;;;2.70;;
19946;SDS011;10135;50.702;7.276;2023-11-19T14:12:43;8.50;;;2.17;;
19946;SDS011;10135;50.702;7.276;2023-11-19T14:14:45;3.90;;;1.80;;
19946;SDS011;10135;50.702;7.276;2023-11-19T14:17:07;14.70;;;2.60;;
19946;SDS011;10135;50.702;7.276;2023-11-19T14:19:23;5.80;;;2.10;;
19946;SDS011;10135;50.702;7.276;2023-11-19T14:21:23;16.27;;;2.60;;
19946;SDS011;10135;50.702;7.276;2023-11-19T14:23:26;7.60;;;2.07;;
19946;SDS011;10135;50.702;7.276;2023-11-19T14:25:30;7.63;;;2.37;;
19946;SDS011;10135;50.702;7.276;2023-11-19T14:27:32;7.07;;;2.43;;
19946;SDS011;10135;50.702;7.276;2023-11-19T14:29:45;7.27;;;1.93;;
19946;SDS011;10135;50.702;7.276;2023-11-19T14:32:20;7.20;;;2.50;;
19946;SDS011;10135;50.702;7.276;2023-11-19T14:34:32;10.33;;;2.37;;
19946;SDS011;10135;50.702;7.276;2023-11-19T14:36:36;7.70;;;2.27;;
19946;SDS011;10135;50.702;7.276;2023-11-19T14:38:40;8.53;;;2.33;;
19946;SDS011;10135;50.702;7.276;2023-11-19T14:40:42;10.33;;;2.20;;
19946;SDS011;10135;50.702;7.276;2023-11-19T14:42:45;8.77;;;2.20;;
19946;SDS011;10135;50.702;7.276;2023-11-19T14:44:52;10.73;;;2.87;;
19946;SDS011;10135;50.702;7.276;2023-11-19T14:46:53;7.73;;;2.37;;
19946;SDS011;10135;50.702;7.276;2023-11-19T14:48:55;10.10;;;2.23;;
19946;SDS011;10135;50.702;7.276;2023-11-19T14:50:59;9.97;;;2.30;;
19946;SDS011;10135;50.702;7.276;2023-11-19T14:53:03;9.40;;;2.03;;
19946;SDS011;10135;50.702;7.276;2023-11-19T14:55:08;7.67;;;2.40;;
19946;SDS011;10135;50.702;7.276;2023-11-19T14:57:48;6.60;;;2.27;;
19946;SDS011;10135;50.702;7.276;2023-11-19T14:59:50;9.63;;;2.50;;
19946;SDS011;10135;50.702;7.276;2023-11-19T15:01:52;8.87;;;2.60;;
19946;SDS011;10135;50.702;7.276;2023-11-19T15:03:53;6.23;;;1.97;;
19946;SDS011;10135;50.702;7.276;2023-11-19T15:05:54;8.60;;;2.20;;
19946;SDS011;10135;50.702;7.276;2023-11-19T15:07:55;5.73;;;1.83;;
19946;SDS011;10135;50.702;7.276;2023-11-19T15:09:57;5.20;;;2.00;;
19946;SDS011;10135;50.702;7.276;2023-11-19T15:12:01;8.60;;;2.30;;
19946;SDS011;10135;50.702;7.276;2023-11-19T15:14:08;5.60;;;2.00;;
19946;SDS011;10135;50.702;7.276;2023-11-19T15:16:15;5.63;;;1.90;;
19946;SDS011;10135;50.702;7.276;2023-11-19T15:18:22;9.47;;;2.10;;
19946;SDS011;10135;50.702;7.276;2023-11-19T15:20:26;5.50;;;1.70;;
19946;SDS011;10135;50.702;7.276;2023-11-19T15:22:30;3.57;;;1.50;;
19946;SDS011;10135;50.702;7.276;2023-11-19T15:24:31;4.37;;;1.70;;
19946;SDS011;10135;50.702;7.276;2023-11-19T15:26:39;3.13;;;1.80;;
19946;SDS011;10135;50.702;7.276;2023-11-19T15:28:40;5.13;;;1.63;;
19946;SDS011;10135;50.702;7.276;2023-11-19T15:30:45;10.30;;;1.87;;
19946;SDS011;10135;50.702;7.276;2023-11-19T15:32:46;6.90;;;1.87;;
19946;SDS011;10135;50.702;7.276;2023-11-19T15:34:53;4.60;;;1.83;;
19946;SDS011;10135;50.702;7.276;2023-11-19T15:36:54;6.90;;;1.97;;
19946;SDS011;10135;50.702;7.276;2023-11-19T15:38:58;7.03;;;1.80;;
19946;SDS011;10135;50.702;7.276;2023-11-19T15:40:59;8.37;;;1.83;;
19946;SDS011;10135;50.702;7.276;2023-11-19T15:43:00;7.70;;;2.20;;
19946;SDS011;10135;50.702;7.276;2023-11-19T15:45:01;6.93;;;2.20;;
19946;SDS011;10135;50.702;7.276;2023-11-19T15:47:06;6.63;;;2.00;;
19946;SDS011;10135;50.702;7.276;2023-11-19T15:49:07;7.87;;;2.20;;
19946;SDS011;10135;50.702;7.276;2023-11-19T15:51:08;8.60;;;2.00;;
19946;SDS011;10135;50.702;7.276;2023-11-19T15:53:08;6.90;;;2.10;;
19946;SDS011;10135;50.702;7.276;2023-11-19T15:55:09;6.60;;;2.33;;
19946;SDS011;10135;50.702;7.276;2023-11-19T15:57:11;11.33;;;2.90;;
19946;SDS011;10135;50.702;7.276;2023-11-19T15:59:13;9.83;;;2.77;;
19946;SDS011;10135;50.702;7.276;2023-11-19T16:01:13;8.97;;;2.40;;
19946;SDS011;10135;50.702;7.276;2023-11-19T16:03:14;7.20;;;2.57;;
19946;SDS011;10135;50.702;7.276;2023-11-19T16:05:15;7.50;;;2.50;;
19946;SDS011;10135;50.702;7.276;2023-11-19T16:07:15;7.60;;;2.77;;
19946;SDS011;10135;50.702;7.276;2023-11-19T16:09:17;9.10;;;3.17;;
19946;SDS011;10135;50.702;7.276;2023-11-19T16:11:19;7.67;;;2.40;;
19946;SDS011;10135;50.702;7.276;2023-11-19T16:13:20;8.37;;;2.47;;
19946;SDS011;10135;50.702;7.276;2023-11-19T16:15:21;7.87;;;2.40;;
19946;SDS011;10135;50.702;7.276;2023-11-19T16:17:22;6.37;;;2.20;;
19946;SDS011;10135;50.702;7.276;2023-11-19T16:19:23;6.87;;;2.13;;
19946;SDS011;10135;50.702;7.276;2023-11-19T16:21:26;6.30;;;2.07;;
19946;SDS011;10135;50.702;7.276;2023-11-19T16:23:27;9.87;;;2.67;;
19946;SDS011;10135;50.702;7.276;2023-11-19T16:25:27;6.10;;;2.10;;
19946;SDS011;10135;50.702;7.276;2023-11-19T16:27:28;7.57;;;2.00;;
19946;SDS011;10135;50.702;7.276;2023-11-19T16:29:29;12.13;;;2.63;;
19946;SDS011;10135;50.702;7.276;2023-11-19T16:31:29;4.43;;;2.20;;
19946;SDS011;10135;50.702;7.276;2023-11-19T16:33:31;7.40;;;1.93;;
19946;SDS011;10135;50.702;7.276;2023-11-19T16:35:34;6.87;;;2.33;;
19946;SDS011;10135;50.702;7.276;2023-11-19T16:37:35;4.13;;;1.93;;
19946;SDS011;10135;50.702;7.276;2023-11-19T16:39:35;6.70;;;2.23;;
19946;SDS011;10135;50.702;7.276;2023-11-19T16:41:36;9.37;;;2.40;;
19946;SDS011;10135;50.702;7.276;2023-11-19T16:43:38;5.97;;;2.03;;
19946;SDS011;10135;50.702;7.276;2023-11-19T16:45:38;4.00;;;1.90;;
19946;SDS011;10135;50.702;7.276;2023-11-19T16:47:39;6.97;;;2.30;;
19946;SDS011;10135;50.702;7.276;2023-11-19T16:49:40;7.67;;;2.30;;
19946;SDS011;10135;50.702;7.276;2023-11-19T16:51:45;10.10;;;2.20;;
19946;SDS011;10135;50.702;7.276;2023-11-19T16:53:47;7.90;;;1.90;;
19946;SDS011;10135;50.702;7.276;2023-11-19T16:55:49;4.10;;;1.87;;
19946;SDS011;10135;50.702;7.276;2023-11-19T16:57:49;6.37;;;2.13;;
19946;SDS011;10135;50.702;7.276;2023-11-19T16:59:50;5.07;;;1.90;;
19946;SDS011;10135;50.702;7.276;2023-11-19T17:01:55;7.33;;;2.43;;
19946;SDS011;10135;50.702;7.276;2023-11-19T17:03:56;6.83;;;1.93;;
19946;SDS011;10135;50.702;7.276;2023-11-19T17:05:58;7.30;;;2.47;;
19946;SDS011;10135;50.702;7.276;2023-11-19T17:07:59;5.30;;;2.10;;
19946;SDS011;10135;50.702;7.276;2023-11-19T17:10:00;7.83;;;2.37;;
19946;SDS011;10135;50.702;7.276;2023-11-19T17:12:02;7.20;;;1.90;;
19946;SDS011;10135;50.702;7.276;2023-11-19T17:14:03;7.67;;;2.10;;
19946;SDS011;10135;50.702;7.276;2023-11-19T17:16:04;7.20;;;2.00;;
19946;SDS011;10135;50.702;7.276;2023-11-19T17:18:05;8.97;;;2.50;;
19946;SDS011;10135;50.702;7.276;2023-11-19T17:20:06;4.73;;;2.30;;
19946;SDS011;10135;50.702;7.276;2023-11-19T17:22:08;7.97;;;1.77;;
19946;SDS011;10135;50.702;7.276;2023-11-19T17:24:11;7.60;;;2.43;;
19946;SDS011;10135;50.702;7.276;2023-11-19T17:26:13;6.83;;;2.07;;
19946;SDS011;10135;50.702;7.276;2023-11-19T17:28:13;11.30;;;2.87;;
19946;SDS011;10135;50.702;7.276;2023-11-19T17:30:14;5.60;;;2.40;;
19946;SDS011;10135;50.702;7.276;2023-11-19T17:32:16;9.33;;;2.20;;
19946;SDS011;10135;50.702;7.276;2023-11-19T17:34:16;6.87;;;2.43;;
19946;SDS011;10135;50.702;7.276;2023-11-19T17:36:18;9.03;;;2.70;;
19946;SDS011;10135;50.702;7.276;2023-11-19T17:38:18;8.40;;;2.30;;
19946;SDS011;10135;50.702;7.276;2023-11-19T17:40:21;8.57;;;2.20;;
19946;SDS011;10135;50.702;7.276;2023-11-19T17:42:23;6.43;;;2.27;;
19946;SDS011;10135;50.702;7.276;2023-11-19T17:44:24;8.83;;;2.30;;
19946;SDS011;10135;50.702;7.276;2023-11-19T17:46:26;7.87;;;2.30;;
19946;SDS011;10135;50.702;7.276;2023-11-19T17:48:27;8.47;;;2.33;;
19946;SDS011;10135;50.702;7.276;2023-11-19T17:50:27;4.87;;;1.90;;
19946;SDS011;10135;50.702;7.276;2023-11-19T17:52:28;10.50;;;2.50;;
19946;SDS011;10135;50.702;7.276;2023-11-19T17:54:30;6.13;;;2.27;;
19946;SDS011;10135;50.702;7.276;2023-11-19T17:56:30;6.30;;;2.43;;
19946;SDS011;10135;50.702;7.276;2023-11-19T17:58:31;6.50;;;2.10;;
19946;SDS011;10135;50.702;7.276;2023-11-19T18:00:32;9.97;;;2.20;;
19946;SDS011;10135;50.702;7.276;2023-11-19T18:02:32;5.33;;;2.50;;
19946;SDS011;10135;50.702;7.276;2023-11-19T18:04:33;7.73;;;2.07;;
19946;SDS011;10135;50.702;7.276;2023-11-19T18:06:37;4.57;;;2.00;;
19946;SDS011;10135;50.702;7.276;2023-11-19T18:08:38;6.17;;;2.07;;
19946;SDS011;10135;50.702;7.276;2023-11-19T18:10:38;6.07;;;1.97;;
19946;SDS011;10135;50.702;7.276;2023-11-19T18:12:42;10.03;;;2.33;;
19946;SDS011;10135;50.702;7.276;2023-11-19T18:14:43;10.33;;;2.87;;
19946;SDS011;10135;50.702;7.276;2023-11-19T18:16:43;7.33;;;2.23;;
19946;SDS011;10135;50.702;7.276;2023-11-19T18:18:44;8.77;;;2.33;;
19946;SDS011;10135;50.702;7.276;2023-11-19T18:20:45;11.30;;;2.80;;
19946;SDS011;10135;50.702;7.276;2023-11-19T18:22:45;6.30;;;2.43;;
19946;SDS011;10135;50.702;7.276;2023-11-19T18:24:47;8.73;;;2.33;;
19946;SDS011;10135;50.702;7.276;2023-11-19T18:26:48;6.20;;;2.10;;
19946;SDS011;10135;50.702;7.276;2023-11-19T18:28:48;7.03;;;2.37;;
19946;SDS011;10135;50.702;7.276;2023-11-19T18:30:49;6.43;;;2.20;;
19946;SDS011;10135;50.702;7.276;2023-11-19T18:32:50;9.13;;;2.33;;
19946;SDS011;10135;50.702;7.276;2023-11-19T18:34:51;11.63;;;2.23;;
19946;SDS011;10135;50.702;7.276;2023-11-19T18:36:51;6.70;;;2.20;;
19946;SDS011;10135;50.702;7.276;2023-11-19T18:38:52;8.53;;;2.13;;
19946;SDS011;10135;50.702;7.276;2023-11-19T18:40:53;9.37;;;2.37;;
19946;SDS011;10135;50.702;7.276;2023-11-19T18:42:53;5.13;;;1.70;;
19946;SDS011;10135;50.702;7.276;2023-11-19T18:44:54;9.17;;;2.20;;
19946;SDS011;10135;50.702;7.276;2023-11-19T18:46:55;8.47;;;2.40;;
19946;SDS011;10135;50.702;7.276;2023-11-19T18:48:57;4.60;;;1.80;;
19946;SDS011;10135;50.702;7.276;2023-11-19T18:50:59;9.17;;;2.17;;
19946;SDS011;10135;50.702;7.276;2023-11-19T18:53:01;5.83;;;2.23;;
19946;SDS011;10135;50.702;7.276;2023-11-19T18:55:02;8.23;;;2.40;;
19946;SDS011;10135;50.702;7.276;2023-11-19T18:57:05;5.00;;;1.83;;
19946;SDS011;10135;50.702;7.276;2023-11-19T18:59:06;7.47;;;2.47;;
19946;SDS011;10135;50.702;7.276;2023-11-19T19:01:11;7.50;;;2.27;;
19946;SDS011;10135;50.702;7.276;2023-11-19T19:03:17;6.60;;;1.83;;
19946;SDS011;10135;50.702;7.276;2023-11-19T19:05:21;5.13;;;1.83;;
19946;SDS011;10135;50.702;7.276;2023-11-19T19:07:23;7.37;;;1.90;;
19946;SDS011;10135;50.702;7.276;2023-11-19T19:09:24;5.30;;;1.97;;
19946;SDS011;10135;50.702;7.276;2023-11-19T19:11:24;3.87;;;1.77;;
19946;SDS011;10135;50.702;7.276;2023-11-19T19:13:25;5.80;;;1.80;;
19946;SDS011;10135;50.702;7.276;2023-11-19T19:15:26;6.07;;;1.90;;
19946;SDS011;10135;50.702;7.276;2023-11-19T19:17:28;7.70;;;2.17;;
19946;SDS011;10135;50.702;7.276;2023-11-19T19:19:29;5.03;;;1.63;;
19946;SDS011;10135;50.702;7.276;2023-11-19T19:21:30;4.30;;;1.80;;
19946;SDS011;10135;50.702;7.276;2023-11-19T19:23:31;3.87;;;1.73;;
19946;SDS011;10135;50.702;7.276;2023-11-19T19:25:32;5.77;;;1.73;;
19946;SDS011;10135;50.702;7.276;2023-11-19T19:27:32;5.17;;;2.00;;
19946;SDS011;10135;50.702;7.276;2023-11-19T19:29:33;7.30;;;2.10;;
19946;SDS011;10135;50.702;7.276;2023-11-19T19:31:34;4.37;;;1.63;;
19946;SDS011;10135;50.702;7.276;2023-11-19T19:33:35;5.63;;;1.70;;
19946;SDS011;10135;50.702;7.276;2023-11-19T19:35:36;6.00;;;2.37;;
19946;SDS011;10135;50.702;7.276;2023-11-19T19:37:40;4.13;;;1.87;;
19946;SDS011;10135;50.702;7.276;2023-11-19T19:39:44;4.93;;;2.13;;
19946;SDS011;10135;50.702;7.276;2023-11-19T19:42:02;4.43;;;1.90;;
19946;SDS011;10135;50.702;7.276;2023-11-19T19:44:09;9.90;;;2.17;;
19946;SDS011;10135;50.702;7.276;2023-11-19T19:46:15;7.43;;;1.90;;
19946;SDS011;10135;50.702;7.276;2023-11-19T19:48:19;9.53;;;2.13;;
19946;SDS011;10135;50.702;7.276;2023-11-19T19:50:23;7.43;;;1.90;;
19946;SDS011;10135;50.702;7.276;2023-11-19T19:52:32;4.87;;;1.90;;
19946;SDS011;10135;50.702;7.276;2023-11-19T19:54:35;6.10;;;1.93;;
19946;SDS011;10135;50.702;7.276;2023-11-19T19:56:35;5.23;;;1.43;;
19946;SDS011;10135;50.702;7.276;2023-11-19T19:58:36;4.93;;;2.00;;
19946;SDS011;10135;50.702;7.276;2023-11-19T20:00:39;9.40;;;1.80;;
19946;SDS011;10135;50.702;7.276;2023-11-19T20:02:40;5.90;;;1.80;;
19946;SDS011;10135;50.702;7.276;2023-11-19T20:04:43;5.60;;;1.90;;
19946;SDS011;10135;50.702;7.276;2023-11-19T20:06:44;4.60;;;2.10;;
19946;SDS011;10135;50.702;7.276;2023-11-19T20:08:45;5.43;;;1.67;;
19946;SDS011;10135;50.702;7.276;2023-11-19T20:10:47;4.90;;;1.90;;
19946;SDS011;10135;50.702;7.276;2023-11-19T20:12:48;6.13;;;1.80;;
19946;SDS011;10135;50.702;7.276;2023-11-19T20:14:49;5.00;;;1.83;;
19946;SDS011;10135;50.702;7.276;2023-11-19T20:16:49;4.23;;;1.93;;
19946;SDS011;10135;50.702;7.276;2023-11-19T20:18:51;6.30;;;1.90;;
19946;SDS011;10135;50.702;7.276;2023-11-19T20:34:01;6.23;;;1.70;;
19946;SDS011;10135;50.702;7.276;2023-11-19T20:36:28;4.67;;;1.80;;
19946;SDS011;10135;50.702;7.276;2023-11-19T20:38:37;7.83;;;1.77;;
19946;SDS011;10135;50.702;7.276;2023-11-19T20:40:37;4.20;;;1.60;;
19946;SDS011;10135;50.702;7.276;2023-11-19T20:42:38;7.83;;;1.63;;
19946;SDS011;10135;50.702;7.276;2023-11-19T21:05:01;4.60;;;1.50;;
19946;SDS011;10135;50.702;7.276;2023-11-19T21:07:02;2.60;;;1.10;;
19946;SDS011;10135;50.702;7.276;2023-11-19T21:09:06;2.00;;;1.30;;
19946;SDS011;10135;50.702;7.276;2023-11-19T21:11:10;4.20;;;1.40;;
19946;SDS011;10135;50.702;7.276;2023-11-19T21:13:11;3.90;;;1.80;;
19946;SDS011;10135;50.702;7.276;2023-11-19T21:15:11;2.27;;;1.30;;
19946;SDS011;10135;50.702;7.276;2023-11-19T21:17:12;3.63;;;1.50;;
19946;SDS011;10135;50.702;7.276;2023-11-19T21:19:13;3.70;;;1.47;;
19946;SDS011;10135;50.702;7.276;2023-11-19T21:21:17;9.03;;;1.73;;
19946;SDS011;10135;50.702;7.276;2023-11-19T21:23:17;10.63;;;2.10;;
19946;SDS011;10135;50.702;7.276;2023-11-19T21:25:21;3.87;;;1.23;;
19946;SDS011;10135;50.702;7.276;2023-11-19T21:27:21;2.53;;;1.40;;
19946;SDS011;10135;50.702;7.276;2023-11-19T21:29:32;4.87;;;1.37;;
19946;SDS011;10135;50.702;7.276;2023-11-19T21:31:32;5.43;;;1.40;;
19946;SDS011;10135;50.702;7.276;2023-11-19T21:33:33;2.23;;;1.20;;
19946;SDS011;10135;50.702;7.276;2023-11-19T21:39:56;2.60;;;1.10;;
19946;SDS011;10135;50.702;7.276;2023-11-19T21:42:17;4.17;;;1.30;;
19946;SDS011;10135;50.702;7.276;2023-11-19T21:47:45;2.73;;;0.90;;
19946;SDS011;10135;50.702;7.276;2023-11-19T21:53:03;4.73;;;1.20;;
19946;SDS011;10135;50.702;7.276;2023-11-19T21:55:04;1.87;;;1.27;;
19946;SDS011;10135;50.702;7.276;2023-11-19T21:57:06;1.50;;;1.17;;
19946;SDS011;10135;50.702;7.276;2023-11-19T21:59:06;3.93;;;1.40;;
19946;SDS011;10135;50.702;7.276;2023-11-19T22:01:07;2.57;;;1.30;;
19946;SDS011;10135;50.702;7.276;2023-11-19T22:03:08;2.63;;;1.30;;
19946;SDS011;10135;50.702;7.276;2023-11-19T22:05:09;1.53;;;1.10;;
19946;SDS011;10135;50.702;7.276;2023-11-19T22:07:12;1.80;;;1.20;;
19946;SDS011;10135;50.702;7.276;2023-11-19T22:21:03;2.13;;;1.07;;
19946;SDS011;10135;50.702;7.276;2023-11-19T22:23:55;1.40;;;0.97;;
19946;SDS011;10135;50.702;7.276;2023-11-19T22:27:14;2.10;;;1.10;;
19946;SDS011;10135;50.702;7.276;2023-11-19T22:30:20;1.50;;;1.03;;
19946;SDS011;10135;50.702;7.276;2023-11-19T22:33:28;1.33;;;1.17;;
19946;SDS011;10135;50.702;7.276;2023-11-19T22:35:28;1.90;;;0.93;;
19946;SDS011;10135;50.702;7.276;2023-11-19T22:37:29;1.57;;;0.90;;
19946;SDS011;10135;50.702;7.276;2023-11-19T22:39:30;1.87;;;0.90;;
19946;SDS011;10135;50.702;7.276;2023-11-19T22:41:31;1.33;;;1.00;;
19946;SDS011;10135;50.702;7.276;2023-11-19T22:43:31;0.87;;;0.80;;
19946;SDS011;10135;50.702;7.276;2023-11-19T22:45:32;2.73;;;0.90;;